Time;durP1;ratioP1;P1;durP2;ratioP2;P2;SDS_P1;SDS_P2;PMS_P1;PMS_P2;Temp;Humidity;BMP_temperature;BMP_pressure;BME280_temperature;BME280_humidity;BME280_pressure;Samples;Min_cycle;Max_cycle;Signal;HPM_P1;HPM_P2
2022/11/15 00:00:50;;;;;;;23.17;18.87;;;;;;;-145.14;100.00;70583.66;5042202;28;20565;-69
2022/11/15 00:03:18;;;;;;;21.30;18.80;;;;;;;-145.14;100.00;70583.66;5041239;28;20680;-69
2022/11/15 00:05:44;;;;;;;24.93;19.73;;;;;;;-145.14;100.00;70583.66;5043878;28;20180;-70
2022/11/15 00:08:10;;;;;;;21.43;19.03;;;;;;;-145.14;100.00;70583.66;5033668;28;20998;-70
2022/11/15 00:10:36;;;;;;;21.23;18.93;;;;;;;-145.14;100.00;70583.66;5032448;28;20567;-70
2022/11/15 00:13:09;;;;;;;25.00;19.57;;;;;;;-145.14;100.00;70583.66;5039313;28;20855;-70
2022/11/15 00:15:39;;;;;;;26.03;18.80;;;;;;;-145.14;100.00;70583.66;5035426;28;20465;-69
2022/11/15 00:18:06;;;;;;;25.23;19.90;;;;;;;-145.14;100.00;70583.66;5031966;28;20682;-69
2022/11/15 00:20:33;;;;;;;21.53;18.37;;;;;;;-145.14;100.00;70583.66;5042799;28;20465;-70
2022/11/15 00:22:59;;;;;;;22.63;19.10;;;;;;;-145.14;100.00;70583.66;5043889;28;20519;-70
2022/11/15 00:25:24;;;;;;;23.30;19.10;;;;;;;-145.14;100.00;70583.66;5042342;28;20918;-69
2022/11/15 00:27:51;;;;;;;22.33;18.60;;;;;;;-145.14;100.00;70583.66;5038403;28;20191;-70
2022/11/15 00:30:17;;;;;;;21.70;19.00;;;;;;;-145.14;100.00;70583.66;5037883;28;20203;-69
2022/11/15 00:32:42;;;;;;;24.73;19.70;;;;;;;-145.14;100.00;70583.66;5042608;28;20437;-69
2022/11/15 00:35:08;;;;;;;22.00;18.70;;;;;;;-145.14;100.00;70583.66;5045678;28;20789;-70
2022/11/15 00:37:33;;;;;;;23.97;20.07;;;;;;;-145.14;100.00;70583.66;5046320;28;20218;-69
2022/11/15 00:39:59;;;;;;;25.70;18.40;;;;;;;-145.14;100.00;70583.66;5044353;28;20565;-70
2022/11/15 00:42:24;;;;;;;23.43;19.03;;;;;;;-145.14;100.00;70583.66;5044053;28;20655;-69
2022/11/15 00:44:50;;;;;;;25.60;18.10;;;;;;;-145.14;100.00;70583.66;5044551;28;20259;-70
2022/11/15 00:47:15;;;;;;;22.90;18.27;;;;;;;-145.14;100.00;70583.66;5039803;28;20200;-69
2022/11/15 00:49:41;;;;;;;23.10;18.80;;;;;;;-145.14;100.00;70583.66;5041058;28;20195;-69
2022/11/15 00:52:07;;;;;;;21.30;16.97;;;;;;;-145.14;100.00;70583.66;5039738;28;20184;-69
2022/11/15 00:54:32;;;;;;;25.27;18.50;;;;;;;-145.14;100.00;70583.66;5044456;28;20495;-70
2022/11/15 00:56:57;;;;;;;20.63;17.77;;;;;;;-145.14;100.00;70583.66;5041714;28;20183;-69
2022/11/15 00:59:23;;;;;;;21.17;17.70;;;;;;;-145.14;100.00;70583.66;5045013;28;20188;-69
2022/11/15 01:01:48;;;;;;;21.15;17.80;;;;;;;-145.14;100.00;70583.66;5044500;28;20290;-69
2022/11/15 01:04:14;;;;;;;22.40;17.10;;;;;;;-145.14;100.00;70583.66;5046444;28;20208;-69
2022/11/15 01:06:39;;;;;;;21.90;17.80;;;;;;;-145.14;100.00;70583.66;5033481;28;20260;-70
2022/11/15 01:09:05;;;;;;;24.05;19.20;;;;;;;-145.14;100.00;70583.66;5034042;28;20195;-69
2022/11/15 01:11:30;;;;;;;24.27;18.67;;;;;;;-145.14;100.00;70583.66;5042253;28;20211;-69
2022/11/15 01:13:55;;;;;;;19.13;16.73;;;;;;;-145.14;100.00;70583.66;5038357;28;20199;-69
2022/11/15 01:16:21;;;;;;;20.47;17.33;;;;;;;-145.14;100.00;70583.66;5035029;28;20569;-69
2022/11/15 01:18:46;;;;;;;20.17;17.50;;;;;;;-145.14;100.00;70583.66;5044903;28;20668;-70
2022/11/15 01:21:17;;;;;;;21.20;17.80;;;;;;;-145.14;100.00;70583.66;5038837;28;20687;-69
2022/11/15 01:23:43;;;;;;;20.00;17.67;;;;;;;-145.14;100.00;70583.66;5039869;28;20208;-69
2022/11/15 01:26:13;;;;;;;20.50;17.77;;;;;;;-145.14;100.00;70583.66;5040181;28;20477;-69
2022/11/15 01:28:41;;;;;;;20.23;16.47;;;;;;;-145.14;100.00;70583.66;5039409;28;20184;-70
2022/11/15 01:31:15;;;;;;;22.10;17.17;;;;;;;-145.14;100.00;70583.66;5043747;28;21261;-70
2022/11/15 01:33:41;;;;;;;20.73;16.53;;;;;;;-145.14;100.00;70583.66;5044317;28;20927;-69
2022/11/15 01:36:27;;;;;;;18.37;16.37;;;;;;;-145.14;100.00;70583.66;5042058;28;20442;-69
2022/11/15 01:38:55;;;;;;;17.70;15.77;;;;;;;-145.14;100.00;70583.66;5038358;28;20234;-70
2022/11/15 01:41:32;;;;;;;17.87;15.80;;;;;;;-145.14;100.00;70583.66;5042954;28;20469;-70
2022/11/15 01:44:28;;;;;;;20.73;16.50;;;;;;;-145.14;100.00;70583.66;5044830;28;20466;-69
2022/11/15 01:46:54;;;;;;;19.30;16.37;;;;;;;-145.14;100.00;70583.66;5035907;28;20434;-72
2022/11/15 01:49:22;;;;;;;20.60;16.23;;;;;;;-145.14;100.00;70583.66;5043368;28;20452;-69
2022/11/15 01:51:48;;;;;;;20.27;17.10;;;;;;;-145.14;100.00;70583.66;5044260;28;20208;-69
2022/11/15 01:54:16;;;;;;;19.47;15.37;;;;;;;-145.14;100.00;70583.66;5041886;28;20444;-69
2022/11/15 01:56:53;;;;;;;20.33;15.70;;;;;;;-145.14;100.00;70583.66;5042522;28;20203;-69
2022/11/15 01:59:19;;;;;;;18.43;15.43;;;;;;;-145.14;100.00;70583.66;5043830;28;20456;-69
2022/11/15 02:01:45;;;;;;;17.80;15.33;;;;;;;-145.14;100.00;70583.66;5035387;28;20892;-69
2022/11/15 02:04:15;;;;;;;19.60;16.00;;;;;;;-145.14;100.00;70583.66;5043469;28;20483;-69
2022/11/15 02:06:43;;;;;;;17.33;15.13;;;;;;;-145.14;100.00;70583.66;5041737;28;20191;-69
2022/11/15 02:09:09;;;;;;;18.87;14.53;;;;;;;-145.14;100.00;70583.66;5037367;28;20982;-69
2022/11/15 02:11:35;;;;;;;18.13;16.10;;;;;;;-145.14;100.00;70583.66;5040653;28;20465;-69
2022/11/15 02:14:01;;;;;;;18.23;15.37;;;;;;;-145.14;100.00;70583.66;5034453;28;20450;-69
2022/11/15 02:16:43;;;;;;;18.07;15.77;;;;;;;-145.14;100.00;70583.66;5036492;28;20218;-71
2022/11/15 02:19:18;;;;;;;17.70;15.53;;;;;;;-145.14;100.00;70583.66;5040702;28;20446;-71
2022/11/15 02:21:56;;;;;;;18.17;15.50;;;;;;;-145.14;100.00;70583.66;5038586;28;20536;-71
2022/11/15 02:24:40;;;;;;;18.17;15.50;;;;;;;-145.14;100.00;70583.66;5038666;28;20968;-71
2022/11/15 02:27:23;;;;;;;20.17;16.80;;;;;;;-145.14;100.00;70583.66;5037546;28;20473;-71
2022/11/15 02:30:21;;;;;;;17.53;15.63;;;;;;;-145.14;100.00;70583.66;5040360;28;20445;-71
2022/11/15 02:33:03;;;;;;;18.47;15.97;;;;;;;-145.14;100.00;70583.66;5038568;28;20835;-71
2022/11/15 02:35:29;;;;;;;19.60;16.90;;;;;;;-145.14;100.00;70583.66;5040691;28;20489;-71
2022/11/15 02:37:59;;;;;;;21.63;17.53;;;;;;;-145.14;100.00;70583.66;5038377;28;20943;-71
2022/11/15 02:40:31;;;;;;;20.20;17.50;;;;;;;-145.14;100.00;70583.66;5033446;28;20586;-71
2022/11/15 02:45:58;;;;;;;20.20;16.37;;;;;;;-145.14;100.00;70583.66;5033983;28;20570;-69
2022/11/15 02:48:25;;;;;;;19.03;16.87;;;;;;;-145.14;100.00;70583.66;5032096;28;20863;-70
2022/11/15 02:50:52;;;;;;;18.33;16.33;;;;;;;-145.14;100.00;70583.66;5030056;28;20466;-70
2022/11/15 02:53:17;;;;;;;21.60;17.03;;;;;;;-145.14;100.00;70583.66;5036694;28;20446;-70
2022/11/15 02:55:49;;;;;;;19.63;17.13;;;;;;;-145.14;100.00;70583.66;5036371;28;20456;-70
2022/11/15 02:58:33;;;;;;;19.30;16.40;;;;;;;-145.14;100.00;70583.66;5036098;28;20187;-70
2022/11/15 03:01:11;;;;;;;17.17;14.83;;;;;;;-145.14;100.00;70583.66;5036746;28;20474;-70
2022/11/15 03:03:48;;;;;;;19.97;16.20;;;;;;;-145.14;100.00;70583.66;5034930;28;20676;-70
2022/11/15 03:06:34;;;;;;;19.30;16.27;;;;;;;-145.14;100.00;70583.66;5039449;28;20794;-70
2022/11/15 03:09:03;;;;;;;18.53;15.70;;;;;;;-145.14;100.00;70583.66;5034637;28;20925;-70
2022/11/15 03:11:32;;;;;;;20.93;15.73;;;;;;;-145.14;100.00;70583.66;5034577;28;20497;-70
2022/11/15 03:14:02;;;;;;;21.17;16.77;;;;;;;-145.14;100.00;70583.66;5032997;28;20442;-70
2022/11/15 03:16:40;;;;;;;20.33;15.63;;;;;;;-145.14;100.00;70583.66;5039071;28;20460;-70
2022/11/15 03:19:23;;;;;;;23.67;17.93;;;;;;;-145.14;100.00;70583.66;5038966;28;21111;-70
2022/11/15 03:21:51;;;;;;;21.50;17.03;;;;;;;-145.14;100.00;70583.66;5035171;28;20457;-70
2022/11/15 03:24:20;;;;;;;19.53;17.43;;;;;;;-145.14;100.00;70583.66;5036712;28;20961;-70
2022/11/15 03:26:49;;;;;;;25.47;17.73;;;;;;;-145.14;100.00;70583.66;5036259;28;20468;-70
2022/11/15 03:29:22;;;;;;;18.70;16.30;;;;;;;-145.14;100.00;70583.66;5031387;28;20478;-70
2022/11/15 03:31:57;;;;;;;20.83;15.60;;;;;;;-145.14;100.00;70583.66;5035521;28;20515;-70
2022/11/15 03:34:29;;;;;;;22.10;17.57;;;;;;;-145.14;100.00;70583.66;5033753;28;20433;-70
2022/11/15 03:36:55;;;;;;;19.07;15.90;;;;;;;-145.14;100.00;70583.66;5035728;28;20450;-70
2022/11/15 03:39:21;;;;;;;24.73;17.07;;;;;;;-145.14;100.00;70583.66;5035230;28;20438;-70
2022/11/15 03:42:06;;;;;;;20.07;16.57;;;;;;;-145.14;100.00;70583.66;5040332;28;20462;-70
2022/11/15 03:44:53;;;;;;;19.07;16.10;;;;;;;-145.14;100.00;70583.66;5031696;28;20470;-70
2022/11/15 03:47:29;;;;;;;24.60;16.70;;;;;;;-145.14;100.00;70583.66;5035440;28;20445;-70
2022/11/15 03:50:02;;;;;;;19.93;16.47;;;;;;;-145.14;100.00;70583.66;5032316;28;20449;-70
2022/11/15 03:52:33;;;;;;;23.93;16.67;;;;;;;-145.14;100.00;70583.66;5036410;28;20446;-70
2022/11/15 03:55:02;;;;;;;19.37;15.97;;;;;;;-145.14;100.00;70583.66;5037137;28;20438;-70
2022/11/15 03:57:28;;;;;;;19.70;17.40;;;;;;;-145.14;100.00;70583.66;5036867;28;20525;-70
2022/11/15 03:59:53;;;;;;;20.13;17.10;;;;;;;-145.14;100.00;70583.66;5037253;28;21001;-71
2022/11/15 04:02:19;;;;;;;19.50;16.70;;;;;;;-145.14;100.00;70583.66;5063066;22;20235;-71
2022/11/15 04:04:44;;;;;;;20.67;15.97;;;;;;;-145.14;100.00;70583.66;5021418;28;20290;-71
2022/11/15 04:07:10;;;;;;;21.53;17.00;;;;;;;-145.14;100.00;70583.66;5037866;28;20282;-71
2022/11/15 04:10:01;;;;;;;24.07;17.90;;;;;;;-145.14;100.00;70583.66;5036571;28;20266;-71
2022/11/15 04:12:30;;;;;;;22.97;16.50;;;;;;;-145.14;100.00;70583.66;5017471;28;20246;-71
2022/11/15 04:15:07;;;;;;;27.80;19.07;;;;;;;-145.14;100.00;70583.66;5021969;28;20454;-71
2022/11/15 04:17:34;;;;;;;27.53;18.67;;;;;;;-145.14;100.00;70583.66;5018965;28;20493;-71
2022/11/15 04:25:28;;;;;;;22.80;17.60;;;;;;;-145.14;100.00;70583.66;5015011;28;20434;-71
2022/11/15 04:27:54;;;;;;;25.93;18.57;;;;;;;-145.14;100.00;70583.66;5011954;28;20520;-71
2022/11/15 04:30:19;;;;;;;26.50;18.40;;;;;;;-145.14;100.00;70583.66;5014066;28;21011;-71
2022/11/15 04:32:44;;;;;;;22.70;17.80;;;;;;;-145.14;100.00;70583.66;5015666;28;20199;-71
2022/11/15 04:35:10;;;;;;;28.03;18.10;;;;;;;-145.14;100.00;70583.66;5017295;28;20659;-71
2022/11/15 04:37:35;;;;;;;23.77;17.37;;;;;;;-145.14;100.00;70583.66;5018093;28;20239;-72
2022/11/15 04:40:01;;;;;;;29.33;19.07;;;;;;;-145.14;100.00;70583.66;5020140;28;20239;-71
2022/11/15 04:42:26;;;;;;;28.40;20.43;;;;;;;-145.14;100.00;70583.66;5021799;28;20249;-71
2022/11/15 04:44:52;;;;;;;26.10;18.80;;;;;;;-145.14;100.00;70583.66;5019162;28;20220;-71
2022/11/15 04:47:17;;;;;;;24.90;17.73;;;;;;;-145.14;100.00;70583.66;5019302;28;20191;-71
2022/11/15 04:49:43;;;;;;;25.60;19.23;;;;;;;-145.14;100.00;70583.66;5014353;28;20188;-71
2022/11/15 04:52:09;;;;;;;21.23;17.63;;;;;;;-145.14;100.00;70583.66;5020313;28;20299;-71
2022/11/15 04:54:34;;;;;;;30.00;18.07;;;;;;;-145.14;100.00;70583.66;5022344;28;20443;-71
2022/11/15 04:57:00;;;;;;;26.60;19.23;;;;;;;-145.14;100.00;70583.66;5020298;28;20250;-71
2022/11/15 04:59:26;;;;;;;29.20;19.80;;;;;;;-145.14;100.00;70583.66;5018566;28;20675;-71
2022/11/15 05:01:51;;;;;;;25.50;18.70;;;;;;;-145.14;100.00;70583.66;5000637;28;20224;-71
2022/11/15 05:04:19;;;;;;;26.50;19.50;;;;;;;-145.14;100.00;70583.66;5020647;28;20282;-71
2022/11/15 05:06:46;;;;;;;23.53;18.77;;;;;;;-145.14;100.00;70583.66;5020228;28;20199;-71
2022/11/15 05:09:13;;;;;;;29.70;20.20;;;;;;;-145.14;100.00;70583.66;5017952;28;20442;-71
2022/11/15 05:11:39;;;;;;;28.10;20.47;;;;;;;-145.14;100.00;70583.66;5021486;28;20458;-72
2022/11/15 05:14:05;;;;;;;27.33;19.70;;;;;;;-145.14;100.00;70583.66;5018531;28;20822;-72
2022/11/15 05:16:30;;;;;;;26.70;19.03;;;;;;;-145.14;100.00;70583.66;5015971;28;20438;-72
2022/11/15 05:18:56;;;;;;;29.93;19.60;;;;;;;-145.14;100.00;70583.66;5022799;28;20606;-71
2022/11/15 05:21:21;;;;;;;28.87;21.10;;;;;;;-145.14;100.00;70583.66;5022983;28;20204;-72
2022/11/15 05:23:47;;;;;;;31.77;20.40;;;;;;;-145.14;100.00;70583.66;5021718;28;20226;-71
2022/11/15 05:26:14;;;;;;;27.00;20.07;;;;;;;-145.14;100.00;70583.66;5022640;28;20216;-71
2022/11/15 05:28:40;;;;;;;27.67;21.23;;;;;;;-145.14;100.00;70583.66;5014431;28;20216;-72
2022/11/15 05:31:06;;;;;;;28.30;20.20;;;;;;;-145.14;100.00;70583.66;4999711;28;20601;-72
2022/11/15 05:33:33;;;;;;;27.77;19.67;;;;;;;-145.14;100.00;70583.66;5016431;28;20266;-72
2022/11/15 05:36:13;;;;;;;27.63;19.60;;;;;;;-145.14;100.00;70583.66;5014126;28;20504;-72
2022/11/15 05:38:39;;;;;;;27.10;18.60;;;;;;;-145.14;100.00;70583.66;5018053;28;20443;-71
2022/11/15 05:41:05;;;;;;;31.67;21.50;;;;;;;-145.14;100.00;70583.66;5002145;28;20619;-72
2022/11/15 05:43:35;;;;;;;34.40;21.53;;;;;;;-145.14;100.00;70583.66;4998349;28;20785;-72
2022/11/15 05:46:04;;;;;;;30.73;20.80;;;;;;;-145.14;100.00;70583.66;5018833;28;20435;-71
2022/11/15 05:48:29;;;;;;;26.13;19.73;;;;;;;-145.14;100.00;70583.66;5021905;28;20781;-72
2022/11/15 05:50:56;;;;;;;34.77;21.80;;;;;;;-145.14;100.00;70583.66;5023163;28;20469;-72
2022/11/15 05:53:24;;;;;;;29.20;21.90;;;;;;;-145.14;100.00;70583.66;5021458;28;20216;-71
2022/11/15 05:55:50;;;;;;;33.60;20.43;;;;;;;-145.14;100.00;70583.66;5006468;28;20446;-72
2022/11/15 05:58:16;;;;;;;28.40;20.50;;;;;;;-145.14;100.00;70583.66;5020412;28;20902;-72
2022/11/15 06:00:43;;;;;;;30.83;19.47;;;;;;;-145.14;100.00;70583.66;5021881;28;20222;-72
2022/11/15 06:03:08;;;;;;;32.70;20.70;;;;;;;-145.14;100.00;70583.66;5024471;28;21439;-71
2022/11/15 06:05:34;;;;;;;30.43;19.83;;;;;;;-145.14;100.00;70583.66;5023369;28;20448;-71
2022/11/15 06:07:59;;;;;;;29.63;20.80;;;;;;;-145.14;100.00;70583.66;5017180;28;20646;-72
2022/11/15 06:10:25;;;;;;;32.00;22.50;;;;;;;-145.14;100.00;70583.66;5016747;28;23519;-72
2022/11/15 06:12:58;;;;;;;38.87;23.10;;;;;;;-145.14;100.00;70583.66;5001261;28;21082;-71
2022/11/15 06:15:23;;;;;;;38.00;21.97;;;;;;;-145.14;100.00;70583.66;5010106;28;20198;-72
2022/11/15 06:17:49;;;;;;;37.73;23.03;;;;;;;-145.14;100.00;70583.66;5016890;28;20447;-71
2022/11/15 06:20:14;;;;;;;39.67;23.20;;;;;;;-145.14;100.00;70583.66;5016806;28;20184;-71
2022/11/15 06:22:40;;;;;;;35.70;22.27;;;;;;;-145.14;100.00;70583.66;5018885;28;20219;-72
2022/11/15 06:25:05;;;;;;;34.50;23.20;;;;;;;-145.14;100.00;70583.66;5015012;28;20240;-72
2022/11/15 06:27:31;;;;;;;39.70;23.20;;;;;;;-145.14;100.00;70583.66;5019352;28;20195;-71
2022/11/15 06:29:56;;;;;;;40.33;22.83;;;;;;;-145.14;100.00;70583.66;5018780;28;20215;-72
2022/11/15 06:32:22;;;;;;;37.40;24.23;;;;;;;-145.14;100.00;70583.66;5023914;28;20281;-72
2022/11/15 06:34:47;;;;;;;36.70;22.83;;;;;;;-145.14;100.00;70583.66;5018729;28;20266;-72
2022/11/15 06:37:13;;;;;;;37.03;22.20;;;;;;;-145.14;100.00;70583.66;5016932;28;20474;-74
2022/11/15 06:39:38;;;;;;;32.80;22.27;;;;;;;-145.14;100.00;70583.66;5016109;28;20192;-72
2022/11/15 06:42:04;;;;;;;40.87;22.27;;;;;;;-145.14;100.00;70583.66;5011013;28;20984;-72
2022/11/15 06:44:29;;;;;;;34.13;22.80;;;;;;;-145.14;100.00;70583.66;5016321;28;20207;-73
2022/11/15 06:46:55;;;;;;;35.23;21.83;;;;;;;-145.14;100.00;70583.66;5025368;28;20193;-72
2022/11/15 06:49:20;;;;;;;33.93;22.53;;;;;;;-145.14;100.00;70583.66;5024912;28;20192;-72
2022/11/15 06:51:45;;;;;;;36.07;21.70;;;;;;;-145.14;100.00;70583.66;5026737;28;20250;-72
2022/11/15 06:54:11;;;;;;;33.80;21.60;;;;;;;-145.14;100.00;70583.66;5026053;28;20258;-72
2022/11/15 06:56:36;;;;;;;30.53;20.70;;;;;;;-145.14;100.00;70583.66;5026174;28;20191;-72
2022/11/15 06:59:02;;;;;;;30.03;20.03;;;;;;;-145.14;100.00;70583.66;5023304;28;20184;-72
2022/11/15 07:01:27;;;;;;;37.00;21.80;;;;;;;-145.14;100.00;70583.66;5022244;28;20215;-72
2022/11/15 07:03:53;;;;;;;30.37;20.77;;;;;;;-145.14;100.00;70583.66;5026708;28;20219;-72
2022/11/15 07:06:18;;;;;;;30.70;21.03;;;;;;;-145.14;100.00;70583.66;5041794;28;20192;-72
2022/11/15 07:08:44;;;;;;;35.50;21.80;;;;;;;-145.14;100.00;70583.66;5019951;28;20196;-72
2022/11/15 07:11:09;;;;;;;30.00;20.60;;;;;;;-145.14;100.00;70583.66;5036346;28;20219;-72
2022/11/15 07:13:36;;;;;;;30.30;20.23;;;;;;;-145.14;100.00;70583.66;5021341;28;20213;-72
2022/11/15 07:16:07;;;;;;;34.13;19.37;;;;;;;-145.14;100.00;70583.66;5040159;28;20184;-72
2022/11/15 07:18:37;;;;;;;28.50;20.47;;;;;;;-145.14;100.00;70583.66;5024708;28;20450;-72
2022/11/15 07:21:04;;;;;;;37.53;22.27;;;;;;;-145.14;100.00;70583.66;5019661;28;20644;-72
2022/11/15 07:23:30;;;;;;;31.43;20.20;;;;;;;-145.14;100.00;70583.66;5027611;28;20463;-72
2022/11/15 07:25:59;;;;;;;33.23;20.60;;;;;;;-145.14;100.00;70583.66;5024911;28;20450;-72
2022/11/15 07:28:26;;;;;;;30.97;20.30;;;;;;;-145.14;100.00;70583.66;5024623;28;21080;-72
2022/11/15 07:30:51;;;;;;;37.13;20.30;;;;;;;-145.14;100.00;70583.66;5024066;28;20470;-72
2022/11/15 07:33:17;;;;;;;29.20;18.33;;;;;;;-145.14;100.00;70583.66;5024819;28;20489;-72
2022/11/15 07:35:42;;;;;;;35.07;19.57;;;;;;;-145.14;100.00;70583.66;5024688;28;20192;-72
2022/11/15 07:38:08;;;;;;;34.23;21.87;;;;;;;-145.14;100.00;70583.66;5003141;28;20176;-72
2022/11/15 07:40:34;;;;;;;29.50;18.27;;;;;;;-145.14;100.00;70583.66;5025665;28;20216;-72
2022/11/15 07:43:05;;;;;;;26.23;18.77;;;;;;;-145.14;100.00;70583.66;5022563;28;21247;-72
2022/11/15 07:45:33;;;;;;;29.60;18.60;;;;;;;-145.14;100.00;70583.66;5000895;28;20185;-73
2022/11/15 07:47:59;;;;;;;28.03;19.20;;;;;;;-145.14;100.00;70583.66;5002989;28;20445;-72
2022/11/15 07:50:26;;;;;;;28.27;18.47;;;;;;;-145.14;100.00;70583.66;4999315;28;21465;-72
2022/11/15 07:52:55;;;;;;;32.80;20.30;;;;;;;-145.14;100.00;70583.66;5015749;28;20431;-72
2022/11/15 07:55:25;;;;;;;24.80;18.37;;;;;;;-145.14;100.00;70583.66;5009843;28;20806;-72
2022/11/15 07:57:51;;;;;;;27.97;18.73;;;;;;;-145.14;100.00;70583.66;5021800;28;20443;-72
2022/11/15 08:00:17;;;;;;;31.03;20.03;;;;;;;-145.14;100.00;70583.66;4992696;28;20470;-72
2022/11/15 08:02:42;;;;;;;29.50;18.30;;;;;;;-145.14;100.00;70583.66;5019997;28;20195;-72
2022/11/15 08:05:08;;;;;;;30.60;19.03;;;;;;;-145.14;100.00;70583.66;5023495;28;20849;-72
2022/11/15 08:07:34;;;;;;;25.53;18.60;;;;;;;-145.14;100.00;70583.66;5018383;28;20188;-72
2022/11/15 08:10:01;;;;;;;28.00;18.90;;;;;;;-145.14;100.00;70583.66;5022035;28;20551;-72
2022/11/15 08:12:28;;;;;;;25.37;16.90;;;;;;;-145.14;100.00;70583.66;5019593;28;20210;-72
2022/11/15 08:14:55;;;;;;;28.17;18.50;;;;;;;-145.14;100.00;70583.66;5002860;28;20443;-72
2022/11/15 08:17:21;;;;;;;25.60;16.60;;;;;;;-145.14;100.00;70583.66;5004503;28;20499;-72
2022/11/15 08:19:46;;;;;;;21.60;17.47;;;;;;;-145.14;100.00;70583.66;5028533;28;21362;-72
2022/11/15 08:22:12;;;;;;;21.63;16.90;;;;;;;-145.14;100.00;70583.66;5028076;28;20580;-72
2022/11/15 08:24:37;;;;;;;24.10;17.23;;;;;;;-145.14;100.00;70583.66;5028276;28;20357;-72
2022/11/15 08:27:03;;;;;;;25.93;17.80;;;;;;;-145.14;100.00;70583.66;5011101;28;20637;-72
2022/11/15 08:29:28;;;;;;;23.33;16.30;;;;;;;-145.14;100.00;70583.66;5027228;28;20196;-72
2022/11/15 08:31:55;;;;;;;21.77;17.23;;;;;;;-145.14;100.00;70583.66;5030381;28;20207;-72
2022/11/15 08:34:21;;;;;;;20.50;17.37;;;;;;;-145.14;100.00;70583.66;5007721;28;20271;-72
2022/11/15 08:36:46;;;;;;;24.03;17.80;;;;;;;-145.14;100.00;70583.66;5027633;28;20550;-73
2022/11/15 08:39:12;;;;;;;19.90;15.80;;;;;;;-145.14;100.00;70583.66;5028006;28;20188;-72
2022/11/15 08:41:38;;;;;;;21.40;17.73;;;;;;;-145.14;100.00;70583.66;5027846;28;20204;-72
2022/11/15 08:44:03;;;;;;;21.57;16.40;;;;;;;-145.14;100.00;70583.66;5012608;28;20212;-72
2022/11/15 08:46:29;;;;;;;22.03;16.83;;;;;;;-145.14;100.00;70583.66;5028628;28;20191;-72
2022/11/15 08:48:54;;;;;;;20.57;15.90;;;;;;;-145.14;100.00;70583.66;5000168;28;20193;-72
2022/11/15 08:51:20;;;;;;;22.80;17.90;;;;;;;-145.14;100.00;70583.66;5000136;28;20306;-73
2022/11/15 08:53:45;;;;;;;21.70;16.77;;;;;;;-145.14;100.00;70583.66;5030076;28;20203;-72
2022/11/15 08:56:13;;;;;;;21.20;16.33;;;;;;;-145.14;100.00;70583.66;5023906;28;20212;-72
2022/11/15 08:58:39;;;;;;;20.43;17.20;;;;;;;-145.14;100.00;70583.66;5023059;28;20187;-72
2022/11/15 09:01:04;;;;;;;19.60;17.33;;;;;;;-145.14;100.00;70583.66;5024652;28;20473;-72
2022/11/15 09:03:30;;;;;;;18.97;16.50;;;;;;;-145.14;100.00;70583.66;5017724;28;20208;-72
2022/11/15 09:05:58;;;;;;;23.97;18.00;;;;;;;-145.14;100.00;70583.66;5008332;28;20283;-72
2022/11/15 09:08:24;;;;;;;18.43;15.30;;;;;;;-145.14;100.00;70583.66;5026021;28;20188;-73
2022/11/15 09:10:50;;;;;;;22.43;17.30;;;;;;;-145.14;100.00;70583.66;5027570;28;20451;-72
2022/11/15 09:13:16;;;;;;;19.17;15.00;;;;;;;-145.14;100.00;70583.66;5023570;28;20473;-72
2022/11/15 09:15:41;;;;;;;19.13;16.80;;;;;;;-145.14;100.00;70583.66;5002485;28;20188;-72
2022/11/15 09:18:07;;;;;;;19.17;16.07;;;;;;;-145.14;100.00;70583.66;5020631;28;20559;-72
2022/11/15 09:20:33;;;;;;;19.80;16.90;;;;;;;-145.14;100.00;70583.66;5017152;28;20220;-72
2022/11/15 09:23:02;;;;;;;18.47;16.33;;;;;;;-145.14;100.00;70583.66;5013274;28;20192;-72
2022/11/15 09:25:28;;;;;;;19.40;16.40;;;;;;;-145.14;100.00;70583.66;5002232;28;20294;-73
2022/11/15 09:27:53;;;;;;;20.10;15.90;;;;;;;-145.14;100.00;70583.66;5025329;28;20482;-72
2022/11/15 09:30:19;;;;;;;19.67;16.20;;;;;;;-145.14;100.00;70583.66;5022678;28;20896;-72
2022/11/15 09:32:44;;;;;;;22.63;16.23;;;;;;;-145.14;100.00;70583.66;5007398;28;20188;-72
2022/11/15 09:35:10;;;;;;;19.47;15.90;;;;;;;-145.14;100.00;70583.66;5030231;28;20259;-72
2022/11/15 09:37:35;;;;;;;19.70;16.90;;;;;;;-145.14;100.00;70583.66;5004671;28;20995;-72
2022/11/15 09:40:01;;;;;;;19.93;14.80;;;;;;;-145.14;100.00;70583.66;5022804;28;20192;-72
2022/11/15 09:43:05;;;;;;;22.33;18.37;;;;;;;-145.14;100.00;70583.66;5002379;28;20307;-72
2022/11/15 09:45:31;;;;;;;21.20;15.87;;;;;;;-145.14;100.00;70583.66;5023433;28;20200;-72
2022/11/15 09:47:56;;;;;;;19.47;15.83;;;;;;;-145.14;100.00;70583.66;5027984;28;20427;-72
2022/11/15 09:50:46;;;;;;;19.37;17.00;;;;;;;-145.14;100.00;70583.66;5029208;28;20594;-72
2022/11/15 09:53:16;;;;;;;17.47;14.57;;;;;;;-145.14;100.00;70583.66;5020821;28;20724;-72
2022/11/15 09:55:52;;;;;;;18.87;16.70;;;;;;;-145.14;100.00;70583.66;5011091;28;20897;-73
2022/11/15 09:58:42;;;;;;;18.83;16.83;;;;;;;-145.14;100.00;70583.66;5023051;28;20438;-72
2022/11/15 10:01:16;;;;;;;21.47;15.13;;;;;;;-145.14;100.00;70583.66;5041213;22;20493;-70
2022/11/15 10:03:42;;;;;;;16.17;14.43;;;;;;;-145.14;100.00;70583.66;5057993;28;20555;-70
2022/11/15 10:06:24;;;;;;;19.03;15.03;;;;;;;-145.14;100.00;70583.66;5057192;28;20525;-70
2022/11/15 10:09:00;;;;;;;17.80;13.70;;;;;;;-145.14;100.00;70583.66;5043485;28;20841;-71
2022/11/15 10:11:30;;;;;;;18.80;15.57;;;;;;;-145.14;100.00;70583.66;5039432;28;20843;-71
2022/11/15 10:14:19;;;;;;;19.20;15.00;;;;;;;-145.14;100.00;70583.66;5038793;28;20441;-71
2022/11/15 10:17:13;;;;;;;15.43;13.60;;;;;;;-145.14;100.00;70583.66;5046305;28;20450;-72
2022/11/15 10:19:59;;;;;;;18.47;14.50;;;;;;;-145.14;100.00;70583.66;5035645;28;21015;-72
2022/11/15 10:22:28;;;;;;;16.10;14.30;;;;;;;-145.14;100.00;70583.66;5045670;28;20552;-72
2022/11/15 10:25:23;;;;;;;18.93;13.33;;;;;;;-145.14;100.00;70583.66;5041809;28;20466;-71
2022/11/15 10:28:10;;;;;;;18.63;15.03;;;;;;;-145.14;100.00;70583.66;5046452;28;20418;-72
2022/11/15 10:30:39;;;;;;;15.63;12.67;;;;;;;-145.14;100.00;70583.66;5052558;28;20541;-71
2022/11/15 10:33:31;;;;;;;16.80;14.00;;;;;;;-145.14;100.00;70583.66;5047609;28;20521;-72
2022/11/15 10:36:09;;;;;;;17.13;14.80;;;;;;;-145.14;100.00;70583.66;5057515;28;20458;-71
2022/11/15 10:38:50;;;;;;;15.90;12.60;;;;;;;-145.14;100.00;70583.66;5041369;28;20448;-71
2022/11/15 10:41:27;;;;;;;14.50;12.80;;;;;;;-145.14;100.00;70583.66;5041796;28;21037;-72
2022/11/15 10:44:08;;;;;;;14.30;12.30;;;;;;;-145.14;100.00;70583.66;5043493;28;20556;-72
2022/11/15 10:46:35;;;;;;;13.63;12.30;;;;;;;-145.14;100.00;70583.66;5038405;28;20506;-72
2022/11/15 10:49:15;;;;;;;16.00;13.17;;;;;;;-145.14;100.00;70583.66;5041164;28;20545;-72
2022/11/15 10:52:19;;;;;;;16.17;13.40;;;;;;;-145.14;100.00;70583.66;5045111;28;20455;-71
2022/11/15 10:54:48;;;;;;;15.13;13.10;;;;;;;-145.14;100.00;70583.66;5048818;28;20635;-71
2022/11/15 10:57:18;;;;;;;17.07;15.23;;;;;;;-145.14;100.00;70583.66;5037018;28;20466;-71
2022/11/15 10:59:49;;;;;;;16.43;14.27;;;;;;;-145.14;100.00;70583.66;5038143;28;20548;-71
2022/11/15 11:02:41;;;;;;;14.30;12.80;;;;;;;-145.14;100.00;70583.66;5041571;28;20472;-71
2022/11/15 11:05:32;;;;;;;15.47;13.87;;;;;;;-145.14;100.00;70583.66;5043882;28;20466;-72
2022/11/15 11:08:15;;;;;;;15.70;14.17;;;;;;;-145.14;100.00;70583.66;5024106;28;20519;-69
2022/11/15 11:10:55;;;;;;;13.70;12.30;;;;;;;-145.14;100.00;70583.66;5026487;28;20470;-69
2022/11/15 11:13:38;;;;;;;15.37;13.73;;;;;;;-145.14;100.00;70583.66;5039363;28;20437;-69